sensor_id;sensor_type;location;lat;lon;timestamp;P1;durP1;ratioP1;P2;durP2;ratioP2
70558;SDS011;58108;48.094;11.838;2022-08-30T00:02:29;10.75;;;5.00;;
70558;SDS011;58108;48.094;11.838;2022-08-30T00:04:54;10.63;;;5.10;;
70558;SDS011;58108;48.094;11.838;2022-08-30T00:07:20;10.70;;;4.80;;
70558;SDS011;58108;48.094;11.838;2022-08-30T00:09:46;8.23;;;4.57;;
70558;SDS011;58108;48.094;11.838;2022-08-30T00:12:11;12.13;;;5.30;;
70558;SDS011;58108;48.094;11.838;2022-08-30T00:14:36;10.40;;;5.00;;
70558;SDS011;58108;48.094;11.838;2022-08-30T00:17:02;10.20;;;4.70;;
70558;SDS011;58108;48.094;11.838;2022-08-30T00:19:27;8.13;;;4.10;;
70558;SDS011;58108;48.094;11.838;2022-08-30T00:21:52;9.73;;;3.97;;
70558;SDS011;58108;48.094;11.838;2022-08-30T00:24:17;5.83;;;3.47;;
70558;SDS011;58108;48.094;11.838;2022-08-30T00:26:43;7.50;;;3.70;;
70558;SDS011;58108;48.094;11.838;2022-08-30T00:29:08;7.93;;;3.93;;
70558;SDS011;58108;48.094;11.838;2022-08-30T00:31:33;7.50;;;4.43;;
70558;SDS011;58108;48.094;11.838;2022-08-30T00:33:59;8.53;;;3.80;;
70558;SDS011;58108;48.094;11.838;2022-08-30T00:36:24;7.20;;;3.73;;
70558;SDS011;58108;48.094;11.838;2022-08-30T00:38:49;9.27;;;3.90;;
70558;SDS011;58108;48.094;11.838;2022-08-30T00:41:14;7.60;;;3.57;;
70558;SDS011;58108;48.094;11.838;2022-08-30T00:43:40;12.43;;;3.90;;
70558;SDS011;58108;48.094;11.838;2022-08-30T00:46:05;7.87;;;4.07;;
70558;SDS011;58108;48.094;11.838;2022-08-30T00:48:32;8.93;;;4.30;;
70558;SDS011;58108;48.094;11.838;2022-08-30T00:51:01;9.20;;;4.53;;
70558;SDS011;58108;48.094;11.838;2022-08-30T00:53:31;9.98;;;4.60;;
70558;SDS011;58108;48.094;11.838;2022-08-30T00:56:00;11.32;;;4.90;;
70558;SDS011;58108;48.094;11.838;2022-08-30T00:58:27;10.27;;;4.40;;
70558;SDS011;58108;48.094;11.838;2022-08-30T01:00:56;8.40;;;4.15;;
70558;SDS011;58108;48.094;11.838;2022-08-30T01:03:24;9.52;;;4.18;;
70558;SDS011;58108;48.094;11.838;2022-08-30T01:05:52;8.98;;;3.92;;
70558;SDS011;58108;48.094;11.838;2022-08-30T01:08:18;9.37;;;4.50;;
70558;SDS011;58108;48.094;11.838;2022-08-30T01:10:46;7.78;;;4.43;;
70558;SDS011;58108;48.094;11.838;2022-08-30T01:13:11;9.40;;;4.43;;
70558;SDS011;58108;48.094;11.838;2022-08-30T01:15:39;8.20;;;4.18;;
70558;SDS011;58108;48.094;11.838;2022-08-30T01:18:06;9.50;;;3.75;;
70558;SDS011;58108;48.094;11.838;2022-08-30T01:20:34;11.38;;;4.75;;
70558;SDS011;58108;48.094;11.838;2022-08-30T01:23:09;12.82;;;4.75;;
70558;SDS011;58108;48.094;11.838;2022-08-30T01:25:38;9.20;;;4.57;;
70558;SDS011;58108;48.094;11.838;2022-08-30T01:28:09;8.98;;;4.40;;
70558;SDS011;58108;48.094;11.838;2022-08-30T01:30:38;7.22;;;3.88;;
70558;SDS011;58108;48.094;11.838;2022-08-30T01:33:06;10.25;;;4.45;;
70558;SDS011;58108;48.094;11.838;2022-08-30T01:35:41;9.00;;;4.00;;
70558;SDS011;58108;48.094;11.838;2022-08-30T01:38:10;7.37;;;3.20;;
70558;SDS011;58108;48.094;11.838;2022-08-30T01:40:38;14.38;;;4.00;;
70558;SDS011;58108;48.094;11.838;2022-08-30T01:43:03;9.20;;;4.15;;
70558;SDS011;58108;48.094;11.838;2022-08-30T01:45:30;7.60;;;3.50;;
70558;SDS011;58108;48.094;11.838;2022-08-30T01:47:55;9.47;;;4.23;;
70558;SDS011;58108;48.094;11.838;2022-08-30T01:50:21;7.67;;;4.03;;
70558;SDS011;58108;48.094;11.838;2022-08-30T01:52:46;8.60;;;3.90;;
70558;SDS011;58108;48.094;11.838;2022-08-30T01:55:11;9.80;;;4.50;;
70558;SDS011;58108;48.094;11.838;2022-08-30T01:57:37;10.50;;;4.73;;
70558;SDS011;58108;48.094;11.838;2022-08-30T02:00:04;10.73;;;4.43;;
70558;SDS011;58108;48.094;11.838;2022-08-30T02:02:33;7.72;;;4.00;;
70558;SDS011;58108;48.094;11.838;2022-08-30T02:04:58;9.55;;;3.80;;
70558;SDS011;58108;48.094;11.838;2022-08-30T02:07:23;7.82;;;3.92;;
70558;SDS011;58108;48.094;11.838;2022-08-30T02:09:50;11.10;;;4.60;;
70558;SDS011;58108;48.094;11.838;2022-08-30T02:12:16;9.02;;;4.97;;
70558;SDS011;58108;48.094;11.838;2022-08-30T02:14:42;7.50;;;4.57;;
70558;SDS011;58108;48.094;11.838;2022-08-30T02:17:08;10.07;;;4.80;;
70558;SDS011;58108;48.094;11.838;2022-08-30T02:19:35;8.30;;;4.20;;
70558;SDS011;58108;48.094;11.838;2022-08-30T02:22:01;7.90;;;4.27;;
70558;SDS011;58108;48.094;11.838;2022-08-30T02:24:26;9.17;;;4.50;;
70558;SDS011;58108;48.094;11.838;2022-08-30T02:26:52;7.72;;;4.38;;
70558;SDS011;58108;48.094;11.838;2022-08-30T02:29:18;13.20;;;5.33;;
70558;SDS011;58108;48.094;11.838;2022-08-30T02:31:45;9.02;;;4.22;;
70558;SDS011;58108;48.094;11.838;2022-08-30T02:34:10;8.47;;;4.47;;
70558;SDS011;58108;48.094;11.838;2022-08-30T02:36:36;14.57;;;4.70;;
70558;SDS011;58108;48.094;11.838;2022-08-30T02:39:03;9.57;;;4.53;;
70558;SDS011;58108;48.094;11.838;2022-08-30T02:41:29;7.47;;;4.07;;
70558;SDS011;58108;48.094;11.838;2022-08-30T02:43:54;10.80;;;4.77;;
70558;SDS011;58108;48.094;11.838;2022-08-30T02:46:22;9.63;;;4.82;;
70558;SDS011;58108;48.094;11.838;2022-08-30T02:48:48;11.00;;;4.70;;
70558;SDS011;58108;48.094;11.838;2022-08-30T02:51:13;10.50;;;4.40;;
70558;SDS011;58108;48.094;11.838;2022-08-30T02:53:39;9.97;;;5.00;;
70558;SDS011;58108;48.094;11.838;2022-08-30T02:56:06;10.38;;;5.18;;
70558;SDS011;58108;48.094;11.838;2022-08-30T02:58:32;9.23;;;5.10;;
70558;SDS011;58108;48.094;11.838;2022-08-30T03:00:57;10.17;;;4.87;;
70558;SDS011;58108;48.094;11.838;2022-08-30T03:03:23;8.70;;;5.20;;
70558;SDS011;58108;48.094;11.838;2022-08-30T03:05:48;9.00;;;4.60;;
70558;SDS011;58108;48.094;11.838;2022-08-30T03:08:14;11.03;;;4.57;;
70558;SDS011;58108;48.094;11.838;2022-08-30T03:10:39;8.57;;;4.10;;
70558;SDS011;58108;48.094;11.838;2022-08-30T03:13:04;9.23;;;4.60;;
70558;SDS011;58108;48.094;11.838;2022-08-30T03:15:31;8.67;;;4.17;;
70558;SDS011;58108;48.094;11.838;2022-08-30T03:17:57;9.00;;;4.60;;
70558;SDS011;58108;48.094;11.838;2022-08-30T03:20:23;7.83;;;4.47;;
70558;SDS011;58108;48.094;11.838;2022-08-30T03:22:48;9.73;;;5.07;;
70558;SDS011;58108;48.094;11.838;2022-08-30T03:25:15;8.18;;;4.50;;
70558;SDS011;58108;48.094;11.838;2022-08-30T03:27:40;10.32;;;4.60;;
70558;SDS011;58108;48.094;11.838;2022-08-30T03:30:06;7.47;;;4.60;;
70558;SDS011;58108;48.094;11.838;2022-08-30T03:32:33;8.37;;;4.53;;
70558;SDS011;58108;48.094;11.838;2022-08-30T03:34:59;8.50;;;4.47;;
70558;SDS011;58108;48.094;11.838;2022-08-30T03:37:24;9.63;;;4.65;;
70558;SDS011;58108;48.094;11.838;2022-08-30T03:39:51;7.20;;;4.10;;
70558;SDS011;58108;48.094;11.838;2022-08-30T03:42:17;9.20;;;4.60;;
70558;SDS011;58108;48.094;11.838;2022-08-30T03:44:42;9.27;;;4.47;;
70558;SDS011;58108;48.094;11.838;2022-08-30T03:47:07;9.17;;;4.90;;
70558;SDS011;58108;48.094;11.838;2022-08-30T03:49:33;11.03;;;4.90;;
70558;SDS011;58108;48.094;11.838;2022-08-30T03:51:58;8.23;;;4.47;;
70558;SDS011;58108;48.094;11.838;2022-08-30T03:54:24;11.00;;;4.53;;
70558;SDS011;58108;48.094;11.838;2022-08-30T03:56:49;8.70;;;4.37;;
70558;SDS011;58108;48.094;11.838;2022-08-30T03:59:14;8.00;;;4.50;;
70558;SDS011;58108;48.094;11.838;2022-08-30T04:01:40;9.87;;;4.43;;
70558;SDS011;58108;48.094;11.838;2022-08-30T04:04:09;9.20;;;4.72;;
70558;SDS011;58108;48.094;11.838;2022-08-30T04:06:35;11.85;;;4.57;;
70558;SDS011;58108;48.094;11.838;2022-08-30T04:09:01;8.30;;;4.40;;
70558;SDS011;58108;48.094;11.838;2022-08-30T04:11:26;10.05;;;4.53;;
70558;SDS011;58108;48.094;11.838;2022-08-30T04:13:52;9.23;;;4.83;;
70558;SDS011;58108;48.094;11.838;2022-08-30T04:16:19;9.80;;;5.30;;
70558;SDS011;58108;48.094;11.838;2022-08-30T04:18:45;9.20;;;5.03;;
70558;SDS011;58108;48.094;11.838;2022-08-30T04:21:10;7.97;;;4.87;;
70558;SDS011;58108;48.094;11.838;2022-08-30T04:23:35;9.97;;;5.07;;
70558;SDS011;58108;48.094;11.838;2022-08-30T04:26:01;12.50;;;5.63;;
70558;SDS011;58108;48.094;11.838;2022-08-30T04:28:26;9.80;;;5.20;;
70558;SDS011;58108;48.094;11.838;2022-08-30T04:30:51;10.10;;;6.18;;
70558;SDS011;58108;48.094;11.838;2022-08-30T04:33:17;11.50;;;5.77;;
70558;SDS011;58108;48.094;11.838;2022-08-30T04:35:44;10.63;;;5.23;;
70558;SDS011;58108;48.094;11.838;2022-08-30T04:38:12;9.15;;;4.93;;
70558;SDS011;58108;48.094;11.838;2022-08-30T04:40:39;9.35;;;5.60;;
70558;SDS011;58108;48.094;11.838;2022-08-30T04:43:06;10.63;;;5.25;;
70558;SDS011;58108;48.094;11.838;2022-08-30T04:45:31;9.00;;;5.13;;
70558;SDS011;58108;48.094;11.838;2022-08-30T04:47:56;13.50;;;6.20;;
70558;SDS011;58108;48.094;11.838;2022-08-30T04:50:22;11.00;;;5.60;;
70558;SDS011;58108;48.094;11.838;2022-08-30T04:52:47;9.50;;;5.20;;
70558;SDS011;58108;48.094;11.838;2022-08-30T04:55:13;8.97;;;5.23;;
70558;SDS011;58108;48.094;11.838;2022-08-30T04:57:39;10.32;;;5.45;;
70558;SDS011;58108;48.094;11.838;2022-08-30T05:00:06;10.38;;;5.03;;
70558;SDS011;58108;48.094;11.838;2022-08-30T05:02:35;12.43;;;5.35;;
70558;SDS011;58108;48.094;11.838;2022-08-30T05:05:00;10.73;;;5.10;;
70558;SDS011;58108;48.094;11.838;2022-08-30T05:07:44;10.35;;;4.93;;
70558;SDS011;58108;48.094;11.838;2022-08-30T05:10:10;9.13;;;5.33;;
70558;SDS011;58108;48.094;11.838;2022-08-30T05:12:35;10.50;;;6.07;;
70558;SDS011;58108;48.094;11.838;2022-08-30T05:15:01;13.17;;;6.07;;
70558;SDS011;58108;48.094;11.838;2022-08-30T05:17:26;10.23;;;5.97;;
70558;SDS011;58108;48.094;11.838;2022-08-30T05:19:52;12.73;;;6.40;;
70558;SDS011;58108;48.094;11.838;2022-08-30T05:22:17;9.27;;;5.33;;
70558;SDS011;58108;48.094;11.838;2022-08-30T05:24:43;11.95;;;6.20;;
70558;SDS011;58108;48.094;11.838;2022-08-30T05:27:08;10.93;;;6.00;;
70558;SDS011;58108;48.094;11.838;2022-08-30T05:29:34;10.13;;;6.37;;
70558;SDS011;58108;48.094;11.838;2022-08-30T05:31:59;11.40;;;6.17;;
70558;SDS011;58108;48.094;11.838;2022-08-30T05:34:25;11.03;;;6.10;;
70558;SDS011;58108;48.094;11.838;2022-08-30T05:36:53;9.93;;;6.28;;
70558;SDS011;58108;48.094;11.838;2022-08-30T05:39:18;11.07;;;6.80;;
70558;SDS011;58108;48.094;11.838;2022-08-30T05:41:43;12.70;;;7.10;;
70558;SDS011;58108;48.094;11.838;2022-08-30T05:44:09;11.23;;;6.37;;
70558;SDS011;58108;48.094;11.838;2022-08-30T05:46:34;12.63;;;7.23;;
70558;SDS011;58108;48.094;11.838;2022-08-30T05:49:01;12.90;;;6.35;;
70558;SDS011;58108;48.094;11.838;2022-08-30T05:51:29;12.65;;;7.80;;
70558;SDS011;58108;48.094;11.838;2022-08-30T05:53:58;11.15;;;6.57;;
70558;SDS011;58108;48.094;11.838;2022-08-30T05:56:24;11.60;;;6.40;;
70558;SDS011;58108;48.094;11.838;2022-08-30T05:58:54;11.95;;;6.75;;
70558;SDS011;58108;48.094;11.838;2022-08-30T06:01:21;13.33;;;6.83;;
70558;SDS011;58108;48.094;11.838;2022-08-30T06:03:48;12.77;;;7.00;;
70558;SDS011;58108;48.094;11.838;2022-08-30T06:06:14;11.63;;;6.60;;
70558;SDS011;58108;48.094;11.838;2022-08-30T06:08:40;10.63;;;6.63;;
70558;SDS011;58108;48.094;11.838;2022-08-30T06:11:06;12.20;;;6.63;;
70558;SDS011;58108;48.094;11.838;2022-08-30T06:13:31;10.30;;;6.37;;
70558;SDS011;58108;48.094;11.838;2022-08-30T06:15:57;9.90;;;6.40;;
70558;SDS011;58108;48.094;11.838;2022-08-30T06:18:22;10.57;;;6.50;;
70558;SDS011;58108;48.094;11.838;2022-08-30T06:20:47;9.87;;;5.93;;
70558;SDS011;58108;48.094;11.838;2022-08-30T06:23:14;9.55;;;6.30;;
70558;SDS011;58108;48.094;11.838;2022-08-30T06:25:41;10.77;;;6.68;;
70558;SDS011;58108;48.094;11.838;2022-08-30T06:28:08;10.45;;;5.80;;
70558;SDS011;58108;48.094;11.838;2022-08-30T06:30:33;9.20;;;5.60;;
70558;SDS011;58108;48.094;11.838;2022-08-30T06:32:59;10.18;;;6.60;;
70558;SDS011;58108;48.094;11.838;2022-08-30T06:35:25;9.40;;;5.80;;
70558;SDS011;58108;48.094;11.838;2022-08-30T06:37:51;10.73;;;6.38;;
70558;SDS011;58108;48.094;11.838;2022-08-30T06:40:17;10.63;;;5.67;;
70558;SDS011;58108;48.094;11.838;2022-08-30T06:42:45;9.52;;;5.88;;
70558;SDS011;58108;48.094;11.838;2022-08-30T06:45:11;10.13;;;6.25;;
70558;SDS011;58108;48.094;11.838;2022-08-30T06:47:36;10.40;;;6.27;;
70558;SDS011;58108;48.094;11.838;2022-08-30T06:50:03;11.80;;;7.60;;
70558;SDS011;58108;48.094;11.838;2022-08-30T06:52:29;11.50;;;7.00;;
70558;SDS011;58108;48.094;11.838;2022-08-30T06:54:54;14.03;;;7.67;;
70558;SDS011;58108;48.094;11.838;2022-08-30T06:57:22;12.68;;;7.53;;
70558;SDS011;58108;48.094;11.838;2022-08-30T06:59:47;12.80;;;7.73;;
70558;SDS011;58108;48.094;11.838;2022-08-30T07:02:12;10.93;;;6.70;;
70558;SDS011;58108;48.094;11.838;2022-08-30T07:04:38;11.80;;;7.33;;
70558;SDS011;58108;48.094;11.838;2022-08-30T07:07:03;11.50;;;6.90;;
70558;SDS011;58108;48.094;11.838;2022-08-30T07:09:29;11.80;;;7.15;;
70558;SDS011;58108;48.094;11.838;2022-08-30T07:11:54;11.63;;;7.10;;
70558;SDS011;58108;48.094;11.838;2022-08-30T07:14:20;10.45;;;6.72;;
70558;SDS011;58108;48.094;11.838;2022-08-30T07:16:46;10.23;;;6.30;;
70558;SDS011;58108;48.094;11.838;2022-08-30T07:19:11;11.57;;;6.67;;
70558;SDS011;58108;48.094;11.838;2022-08-30T07:21:37;10.03;;;6.53;;
70558;SDS011;58108;48.094;11.838;2022-08-30T07:24:07;9.98;;;6.82;;
70558;SDS011;58108;48.094;11.838;2022-08-30T07:26:44;9.57;;;6.32;;
70558;SDS011;58108;48.094;11.838;2022-08-30T07:29:13;10.82;;;6.88;;
70558;SDS011;58108;48.094;11.838;2022-08-30T07:31:38;9.93;;;5.70;;
70558;SDS011;58108;48.094;11.838;2022-08-30T07:34:05;8.10;;;5.78;;
70558;SDS011;58108;48.094;11.838;2022-08-30T07:36:31;9.70;;;6.03;;
70558;SDS011;58108;48.094;11.838;2022-08-30T07:38:57;8.60;;;5.85;;
70558;SDS011;58108;48.094;11.838;2022-08-30T07:41:24;10.27;;;6.20;;
70558;SDS011;58108;48.094;11.838;2022-08-30T07:43:55;9.75;;;6.13;;
70558;SDS011;58108;48.094;11.838;2022-08-30T07:46:21;9.27;;;6.38;;
70558;SDS011;58108;48.094;11.838;2022-08-30T07:48:47;9.32;;;5.60;;
70558;SDS011;58108;48.094;11.838;2022-08-30T07:51:14;8.90;;;5.80;;
70558;SDS011;58108;48.094;11.838;2022-08-30T07:53:44;8.75;;;5.53;;
70558;SDS011;58108;48.094;11.838;2022-08-30T07:56:10;7.82;;;5.13;;
70558;SDS011;58108;48.094;11.838;2022-08-30T07:58:36;8.33;;;4.90;;
70558;SDS011;58108;48.094;11.838;2022-08-30T08:01:03;7.75;;;4.80;;
70558;SDS011;58108;48.094;11.838;2022-08-30T08:03:30;7.00;;;4.90;;
70558;SDS011;58108;48.094;11.838;2022-08-30T08:05:56;6.80;;;4.63;;
70558;SDS011;58108;48.094;11.838;2022-08-30T08:08:21;8.20;;;4.87;;
70558;SDS011;58108;48.094;11.838;2022-08-30T08:10:47;7.95;;;4.68;;
70558;SDS011;58108;48.094;11.838;2022-08-30T08:13:13;8.00;;;4.80;;
70558;SDS011;58108;48.094;11.838;2022-08-30T08:15:38;7.23;;;4.90;;
70558;SDS011;58108;48.094;11.838;2022-08-30T08:18:04;7.20;;;5.03;;
70558;SDS011;58108;48.094;11.838;2022-08-30T08:20:30;6.60;;;5.03;;
70558;SDS011;58108;48.094;11.838;2022-08-30T08:22:57;7.00;;;5.05;;
70558;SDS011;58108;48.094;11.838;2022-08-30T08:25:22;8.33;;;5.20;;
70558;SDS011;58108;48.094;11.838;2022-08-30T08:27:48;8.87;;;5.53;;
70558;SDS011;58108;48.094;11.838;2022-08-30T08:30:15;8.07;;;4.80;;
70558;SDS011;58108;48.094;11.838;2022-08-30T08:32:42;6.88;;;5.20;;
70558;SDS011;58108;48.094;11.838;2022-08-30T08:35:07;7.50;;;4.90;;
70558;SDS011;58108;48.094;11.838;2022-08-30T08:37:35;7.30;;;5.22;;
70558;SDS011;58108;48.094;11.838;2022-08-30T08:40:00;6.23;;;4.33;;
70558;SDS011;58108;48.094;11.838;2022-08-30T08:45:10;6.40;;;4.32;;
70558;SDS011;58108;48.094;11.838;2022-08-30T08:50:33;7.03;;;4.82;;
70558;SDS011;58108;48.094;11.838;2022-08-30T08:53:34;6.38;;;4.47;;
70558;SDS011;58108;48.094;11.838;2022-08-30T08:56:04;7.17;;;4.43;;
70558;SDS011;58108;48.094;11.838;2022-08-30T08:58:40;6.68;;;4.20;;
70558;SDS011;58108;48.094;11.838;2022-08-30T09:01:08;7.68;;;4.97;;
70558;SDS011;58108;48.094;11.838;2022-08-30T09:03:35;8.18;;;5.20;;
70558;SDS011;58108;48.094;11.838;2022-08-30T09:06:06;7.80;;;4.67;;
70558;SDS011;58108;48.094;11.838;2022-08-30T09:08:44;6.20;;;4.40;;
70558;SDS011;58108;48.094;11.838;2022-08-30T09:11:09;9.10;;;4.47;;
70558;SDS011;58108;48.094;11.838;2022-08-30T09:13:41;7.65;;;4.25;;
70558;SDS011;58108;48.094;11.838;2022-08-30T09:16:07;6.90;;;4.27;;
70558;SDS011;58108;48.094;11.838;2022-08-30T09:18:43;7.43;;;4.37;;
70558;SDS011;58108;48.094;11.838;2022-08-30T09:21:10;7.60;;;4.30;;
70558;SDS011;58108;48.094;11.838;2022-08-30T09:23:36;5.65;;;3.72;;
70558;SDS011;58108;48.094;11.838;2022-08-30T09:26:12;6.38;;;4.13;;
70558;SDS011;58108;48.094;11.838;2022-08-30T09:28:46;7.37;;;4.00;;
70558;SDS011;58108;48.094;11.838;2022-08-30T09:31:17;6.60;;;3.88;;
70558;SDS011;58108;48.094;11.838;2022-08-30T09:33:55;5.60;;;4.00;;
70558;SDS011;58108;48.094;11.838;2022-08-30T09:39:13;5.15;;;3.60;;
70558;SDS011;58108;48.094;11.838;2022-08-30T09:41:42;5.60;;;3.60;;
70558;SDS011;58108;48.094;11.838;2022-08-30T09:44:22;5.40;;;4.03;;
70558;SDS011;58108;48.094;11.838;2022-08-30T09:46:55;6.63;;;5.03;;
70558;SDS011;58108;48.094;11.838;2022-08-30T09:49:35;7.25;;;3.78;;
70558;SDS011;58108;48.094;11.838;2022-08-30T09:52:11;6.13;;;4.35;;
70558;SDS011;58108;48.094;11.838;2022-08-30T09:54:46;5.32;;;3.65;;
70558;SDS011;58108;48.094;11.838;2022-08-30T09:57:31;6.20;;;4.03;;
70558;SDS011;58108;48.094;11.838;2022-08-30T10:00:30;6.20;;;4.37;;
70558;SDS011;58108;48.094;11.838;2022-08-30T10:05:54;4.22;;;3.22;;
70558;SDS011;58108;48.094;11.838;2022-08-30T10:17:12;5.85;;;3.22;;
70558;SDS011;58108;48.094;11.838;2022-08-30T10:23:18;4.68;;;3.08;;
70558;SDS011;58108;48.094;11.838;2022-08-30T10:31:10;5.03;;;3.00;;
70558;SDS011;58108;48.094;11.838;2022-08-30T10:33:43;5.82;;;3.38;;
70558;SDS011;58108;48.094;11.838;2022-08-30T10:36:13;5.07;;;3.35;;
70558;SDS011;58108;48.094;11.838;2022-08-30T10:38:47;5.38;;;3.10;;
70558;SDS011;58108;48.094;11.838;2022-08-30T10:44:02;5.00;;;3.03;;
70558;SDS011;58108;48.094;11.838;2022-08-30T10:46:37;5.18;;;3.47;;
70558;SDS011;58108;48.094;11.838;2022-08-30T10:49:20;4.60;;;3.20;;
70558;SDS011;58108;48.094;11.838;2022-08-30T10:52:10;4.70;;;3.30;;
70558;SDS011;58108;48.094;11.838;2022-08-30T10:57:28;4.53;;;3.10;;
70558;SDS011;58108;48.094;11.838;2022-08-30T10:59:56;3.87;;;2.90;;
70558;SDS011;58108;48.094;11.838;2022-08-30T11:13:11;5.83;;;3.20;;
70558;SDS011;58108;48.094;11.838;2022-08-30T11:16:32;4.78;;;3.25;;
70558;SDS011;58108;48.094;11.838;2022-08-30T11:18:24;7.25;;;4.20;;
70558;SDS011;58108;48.094;11.838;2022-08-30T11:20:53;15.68;;;9.98;;
70558;SDS011;58108;48.094;11.838;2022-08-30T11:23:39;37.53;;;24.38;;
70558;SDS011;58108;48.094;11.838;2022-08-30T11:26:05;8.63;;;5.27;;
70558;SDS011;58108;48.094;11.838;2022-08-30T11:36:10;6.10;;;3.20;;
70558;SDS011;58108;48.094;11.838;2022-08-30T11:51:38;6.05;;;3.42;;
70558;SDS011;58108;48.094;11.838;2022-08-30T11:54:27;8.47;;;3.17;;
70558;SDS011;58108;48.094;11.838;2022-08-30T11:57:19;4.70;;;3.08;;
70558;SDS011;58108;48.094;11.838;2022-08-30T12:08:02;4.43;;;3.10;;
70558;SDS011;58108;48.094;11.838;2022-08-30T12:10:45;5.63;;;3.50;;
70558;SDS011;58108;48.094;11.838;2022-08-30T12:13:50;5.82;;;3.38;;
70558;SDS011;58108;48.094;11.838;2022-08-30T12:16:20;4.28;;;2.92;;
70558;SDS011;58108;48.094;11.838;2022-08-30T12:18:55;3.95;;;3.47;;
70558;SDS011;58108;48.094;11.838;2022-08-30T12:21:29;4.80;;;3.63;;
70558;SDS011;58108;48.094;11.838;2022-08-30T12:24:16;5.93;;;4.20;;
70558;SDS011;58108;48.094;11.838;2022-08-30T12:26:46;5.22;;;3.63;;
70558;SDS011;58108;48.094;11.838;2022-08-30T12:29:17;4.93;;;3.35;;
70558;SDS011;58108;48.094;11.838;2022-08-30T12:31:46;5.25;;;3.65;;
70558;SDS011;58108;48.094;11.838;2022-08-30T12:34:23;4.50;;;3.57;;
70558;SDS011;58108;48.094;11.838;2022-08-30T12:40:03;4.32;;;3.92;;
70558;SDS011;58108;48.094;11.838;2022-08-30T12:42:35;5.07;;;3.53;;
70558;SDS011;58108;48.094;11.838;2022-08-30T12:45:10;4.38;;;3.97;;
70558;SDS011;58108;48.094;11.838;2022-08-30T12:47:48;4.87;;;3.60;;
70558;SDS011;58108;48.094;11.838;2022-08-30T12:50:19;4.20;;;3.45;;
70558;SDS011;58108;48.094;11.838;2022-08-30T12:52:54;4.22;;;3.70;;
70558;SDS011;58108;48.094;11.838;2022-08-30T12:55:34;4.60;;;3.80;;
70558;SDS011;58108;48.094;11.838;2022-08-30T12:58:05;4.07;;;3.67;;
70558;SDS011;58108;48.094;11.838;2022-08-30T13:00:34;4.17;;;3.77;;
70558;SDS011;58108;48.094;11.838;2022-08-30T13:03:00;5.03;;;3.58;;
70558;SDS011;58108;48.094;11.838;2022-08-30T13:08:13;4.28;;;3.72;;
70558;SDS011;58108;48.094;11.838;2022-08-30T13:11:05;5.20;;;4.00;;
70558;SDS011;58108;48.094;11.838;2022-08-30T13:18:41;4.45;;;3.83;;
70558;SDS011;58108;48.094;11.838;2022-08-30T13:21:30;4.95;;;3.85;;
70558;SDS011;58108;48.094;11.838;2022-08-30T13:23:56;4.72;;;3.80;;
70558;SDS011;58108;48.094;11.838;2022-08-30T13:26:27;4.97;;;3.80;;
70558;SDS011;58108;48.094;11.838;2022-08-30T13:28:56;4.78;;;3.75;;
70558;SDS011;58108;48.094;11.838;2022-08-30T13:31:24;4.88;;;3.95;;
70558;SDS011;58108;48.094;11.838;2022-08-30T13:33:50;4.10;;;3.70;;
70558;SDS011;58108;48.094;11.838;2022-08-30T13:36:18;5.07;;;3.90;;
70558;SDS011;58108;48.094;11.838;2022-08-30T13:38:45;4.93;;;4.10;;
70558;SDS011;58108;48.094;11.838;2022-08-30T13:41:12;4.38;;;3.97;;
70558;SDS011;58108;48.094;11.838;2022-08-30T13:43:38;4.72;;;3.70;;
70558;SDS011;58108;48.094;11.838;2022-08-30T13:46:03;4.40;;;3.83;;
70558;SDS011;58108;48.094;11.838;2022-08-30T13:48:30;4.93;;;4.10;;
70558;SDS011;58108;48.094;11.838;2022-08-30T13:50:56;4.45;;;3.65;;
70558;SDS011;58108;48.094;11.838;2022-08-30T13:53:21;4.53;;;3.80;;
70558;SDS011;58108;48.094;11.838;2022-08-30T13:55:47;4.20;;;3.77;;
70558;SDS011;58108;48.094;11.838;2022-08-30T13:58:12;4.70;;;3.65;;
70558;SDS011;58108;48.094;11.838;2022-08-30T14:00:37;5.83;;;5.23;;
70558;SDS011;58108;48.094;11.838;2022-08-30T14:03:03;4.83;;;4.33;;
70558;SDS011;58108;48.094;11.838;2022-08-30T14:05:30;5.57;;;4.27;;
70558;SDS011;58108;48.094;11.838;2022-08-30T14:07:57;4.23;;;3.43;;
70558;SDS011;58108;48.094;11.838;2022-08-30T14:10:23;4.53;;;3.50;;
70558;SDS011;58108;48.094;11.838;2022-08-30T14:12:51;5.50;;;3.57;;
70558;SDS011;58108;48.094;11.838;2022-08-30T14:15:16;4.18;;;3.78;;
70558;SDS011;58108;48.094;11.838;2022-08-30T14:17:42;4.23;;;3.83;;
70558;SDS011;58108;48.094;11.838;2022-08-30T14:20:07;4.70;;;3.67;;
70558;SDS011;58108;48.094;11.838;2022-08-30T14:22:33;4.90;;;3.93;;
70558;SDS011;58108;48.094;11.838;2022-08-30T14:24:58;4.80;;;3.93;;
70558;SDS011;58108;48.094;11.838;2022-08-30T14:27:25;4.43;;;3.78;;
70558;SDS011;58108;48.094;11.838;2022-08-30T14:29:51;5.70;;;5.03;;
70558;SDS011;58108;48.094;11.838;2022-08-30T14:32:17;7.50;;;5.87;;
70558;SDS011;58108;48.094;11.838;2022-08-30T14:34:42;6.20;;;4.80;;
70558;SDS011;58108;48.094;11.838;2022-08-30T14:37:08;5.07;;;4.07;;
70558;SDS011;58108;48.094;11.838;2022-08-30T14:39:33;4.90;;;3.53;;
70558;SDS011;58108;48.094;11.838;2022-08-30T14:41:58;4.73;;;3.57;;
70558;SDS011;58108;48.094;11.838;2022-08-30T14:44:24;5.83;;;3.90;;
70558;SDS011;58108;48.094;11.838;2022-08-30T14:46:50;4.68;;;3.88;;
70558;SDS011;58108;48.094;11.838;2022-08-30T14:49:16;4.93;;;4.10;;
70558;SDS011;58108;48.094;11.838;2022-08-30T14:51:42;4.90;;;4.38;;
70558;SDS011;58108;48.094;11.838;2022-08-30T14:54:10;4.90;;;4.30;;
70558;SDS011;58108;48.094;11.838;2022-08-30T14:56:37;4.38;;;3.65;;
70558;SDS011;58108;48.094;11.838;2022-08-30T14:59:04;4.25;;;3.85;;
70558;SDS011;58108;48.094;11.838;2022-08-30T15:01:30;4.67;;;4.27;;
70558;SDS011;58108;48.094;11.838;2022-08-30T15:03:56;4.38;;;3.65;;
70558;SDS011;58108;48.094;11.838;2022-08-30T15:06:22;4.05;;;3.65;;
70558;SDS011;58108;48.094;11.838;2022-08-30T15:08:48;5.77;;;3.93;;
70558;SDS011;58108;48.094;11.838;2022-08-30T15:11:14;5.88;;;3.85;;
70558;SDS011;58108;48.094;11.838;2022-08-30T15:13:41;5.30;;;3.70;;
70558;SDS011;58108;48.094;11.838;2022-08-30T15:16:19;3.63;;;3.28;;
70558;SDS011;58108;48.094;11.838;2022-08-30T15:18:48;4.20;;;3.80;;
70558;SDS011;58108;48.094;11.838;2022-08-30T15:21:13;4.53;;;3.90;;
70558;SDS011;58108;48.094;11.838;2022-08-30T15:23:45;4.50;;;3.75;;
70558;SDS011;58108;48.094;11.838;2022-08-30T15:26:11;4.78;;;3.78;;
70558;SDS011;58108;48.094;11.838;2022-08-30T15:28:37;5.17;;;3.80;;
70558;SDS011;58108;48.094;11.838;2022-08-30T15:31:02;4.43;;;4.03;;
70558;SDS011;58108;48.094;11.838;2022-08-30T15:33:27;4.90;;;4.40;;
70558;SDS011;58108;48.094;11.838;2022-08-30T15:35:53;5.40;;;3.80;;
70558;SDS011;58108;48.094;11.838;2022-08-30T15:38:18;4.00;;;3.47;;
70558;SDS011;58108;48.094;11.838;2022-08-30T15:40:44;4.30;;;3.22;;
70558;SDS011;58108;48.094;11.838;2022-08-30T15:43:12;3.90;;;3.40;;
70558;SDS011;58108;48.094;11.838;2022-08-30T15:45:37;3.67;;;3.27;;
70558;SDS011;58108;48.094;11.838;2022-08-30T15:48:03;4.10;;;3.40;;
70558;SDS011;58108;48.094;11.838;2022-08-30T15:50:28;5.33;;;3.80;;
70558;SDS011;58108;48.094;11.838;2022-08-30T15:52:54;5.00;;;3.13;;
70558;SDS011;58108;48.094;11.838;2022-08-30T15:55:19;3.70;;;3.27;;
70558;SDS011;58108;48.094;11.838;2022-08-30T15:57:44;4.28;;;3.45;;
70558;SDS011;58108;48.094;11.838;2022-08-30T16:00:10;4.50;;;3.40;;
70558;SDS011;58108;48.094;11.838;2022-08-30T16:02:36;5.77;;;5.17;;